createdAt,value
2018-02-19T00:00:43.740Z,32.10
2018-02-19T00:03:11.215Z,34.13
2018-02-19T00:05:38.705Z,34.50
2018-02-19T00:08:06.182Z,35.50
2018-02-19T00:10:33.688Z,35.23
2018-02-19T00:13:01.165Z,36.60
2018-02-19T00:15:28.646Z,37.17
2018-02-19T00:17:56.118Z,35.00
2018-02-19T00:20:23.616Z,36.93
2018-02-19T00:22:51.092Z,36.73
2018-02-19T00:25:18.583Z,36.87
2018-02-19T00:27:46.056Z,36.33
2018-02-19T00:30:13.541Z,36.73
2018-02-19T00:32:41.067Z,36.30
2018-02-19T00:35:08.530Z,36.33
2018-02-19T00:37:36.007Z,36.77
2018-02-19T00:40:03.498Z,35.13
2018-02-19T00:42:30.968Z,37.33
2018-02-19T00:44:58.455Z,35.60
2018-02-19T00:47:25.928Z,36.23
2018-02-19T00:49:53.429Z,33.83
2018-02-19T00:52:20.898Z,34.57
2018-02-19T00:54:48.369Z,35.97
2018-02-19T00:57:15.878Z,36.03
2018-02-19T00:59:43.344Z,35.97
2018-02-19T01:02:10.834Z,37.20
2018-02-19T01:04:38.359Z,37.57
2018-02-19T01:07:05.845Z,37.57
2018-02-19T01:09:33.318Z,36.53
2018-02-19T01:12:00.804Z,36.20
2018-02-19T01:14:29.227Z,38.20
2018-02-19T01:16:56.724Z,36.33
2018-02-19T01:19:24.206Z,36.63
2018-02-19T01:21:51.702Z,36.37
2018-02-19T01:24:19.180Z,36.73
2018-02-19T01:26:46.672Z,34.93
2018-02-19T01:29:14.138Z,36.20
2018-02-19T01:31:41.658Z,34.60
2018-02-19T01:34:09.138Z,32.30
2018-02-19T01:36:36.628Z,32.67
2018-02-19T01:39:04.102Z,33.90
2018-02-19T01:41:31.591Z,32.33
2018-02-19T01:43:59.068Z,34.13
2018-02-19T01:46:26.556Z,31.37
2018-02-19T01:48:54.029Z,33.37
2018-02-19T01:51:21.522Z,32.60
2018-02-19T01:53:48.992Z,33.60
2018-02-19T01:56:16.479Z,32.87
2018-02-19T01:58:43.947Z,33.27
2018-02-19T02:01:11.434Z,32.20
2018-02-19T02:03:38.903Z,31.20
2018-02-19T02:06:06.394Z,31.97
2018-02-19T02:08:33.879Z,32.47
2018-02-19T02:11:01.367Z,31.87
2018-02-19T02:13:28.845Z,32.13
2018-02-19T02:15:56.336Z,33.37
2018-02-19T02:18:23.807Z,32.63
2018-02-19T02:20:51.278Z,32.20
2018-02-19T02:23:18.776Z,31.53
2018-02-19T02:25:46.249Z,33.20
2018-02-19T02:28:13.745Z,33.60
2018-02-19T02:30:41.224Z,33.00
2018-02-19T02:33:08.720Z,33.07
2018-02-19T02:35:36.192Z,35.13
2018-02-19T02:38:03.683Z,33.73
2018-02-19T02:40:31.164Z,34.00
2018-02-19T02:42:58.659Z,33.77
2018-02-19T02:45:26.133Z,34.97
2018-02-19T02:47:53.635Z,35.33
2018-02-19T02:50:21.111Z,37.60
2018-02-19T02:52:48.595Z,35.30
2018-02-19T02:55:16.069Z,34.23
2018-02-19T02:57:43.559Z,36.03
2018-02-19T03:00:11.033Z,35.47
2018-02-19T03:02:38.524Z,36.17
2018-02-19T03:05:05.993Z,38.97
2018-02-19T03:07:33.484Z,36.60
2018-02-19T03:10:00.951Z,38.60
2018-02-19T03:12:28.434Z,36.97
2018-02-19T03:14:55.904Z,39.27
2018-02-19T03:17:23.395Z,38.93
2018-02-19T03:19:50.862Z,38.40
2018-02-19T03:22:18.359Z,37.07
2018-02-19T03:24:45.836Z,37.60
2018-02-19T03:27:13.336Z,37.23
2018-02-19T03:29:40.805Z,38.53
2018-02-19T03:32:08.295Z,38.57
2018-02-19T03:34:35.763Z,37.57
2018-02-19T03:37:03.251Z,39.17
2018-02-19T03:39:30.734Z,38.03
2018-02-19T03:41:58.228Z,35.60
2018-02-19T03:44:25.702Z,37.13
2018-02-19T03:46:53.175Z,34.67
2018-02-19T03:49:20.672Z,35.23
2018-02-19T03:51:48.150Z,34.50
2018-02-19T03:54:15.648Z,37.40
2018-02-19T03:56:43.134Z,36.90
2018-02-19T03:59:10.618Z,35.20
2018-02-19T04:01:38.091Z,35.17
2018-02-19T04:04:05.574Z,34.37
2018-02-19T04:06:33.043Z,35.93
2018-02-19T04:09:00.533Z,35.40
2018-02-19T04:11:28.002Z,36.20
2018-02-19T04:13:55.491Z,35.00
2018-02-19T04:16:22.954Z,34.53
2018-02-19T04:18:50.444Z,33.83
2018-02-19T04:21:18.569Z,34.73
2018-02-19T04:23:46.100Z,35.20
2018-02-19T04:26:13.563Z,32.77
2018-02-19T04:28:41.058Z,32.33
2018-02-19T04:31:08.547Z,34.80
2018-02-19T04:33:36.044Z,33.87
2018-02-19T04:36:03.563Z,33.47
2018-02-19T04:38:31.051Z,32.60
2018-02-19T04:40:58.514Z,32.27
2018-02-19T04:43:26.004Z,31.17
2018-02-19T04:46:01.995Z,31.30
2018-02-19T04:48:36.679Z,30.97
2018-02-19T04:51:04.148Z,29.53
2018-02-19T04:53:31.690Z,30.00
2018-02-19T04:55:59.160Z,29.57
2018-02-19T04:58:26.653Z,27.87
2018-02-19T05:00:54.133Z,28.43
2018-02-19T05:03:21.632Z,27.17
2018-02-19T05:05:49.102Z,27.37
2018-02-19T05:08:16.595Z,27.13
2018-02-19T05:10:44.059Z,25.73
2018-02-19T05:13:11.548Z,24.13
2018-02-19T05:15:39.024Z,24.13
2018-02-19T05:18:06.516Z,24.97
2018-02-19T05:20:33.992Z,23.87
2018-02-19T05:23:01.499Z,23.63
2018-02-19T05:25:28.963Z,23.30
2018-02-19T05:27:56.438Z,23.27
2018-02-19T05:30:23.939Z,23.53
2018-02-19T05:32:51.416Z,23.17
2018-02-19T05:35:18.910Z,23.50
2018-02-19T05:37:46.374Z,23.37
2018-02-19T05:40:13.866Z,24.23
2018-02-19T05:42:41.343Z,21.40
2018-02-19T05:45:08.840Z,21.90
2018-02-19T05:47:36.365Z,22.03
2018-02-19T05:50:03.838Z,21.70
2018-02-19T05:52:31.306Z,21.73
2018-02-19T05:54:59.251Z,22.23
2018-02-19T05:57:26.716Z,22.17
2018-02-19T05:59:54.211Z,20.77
2018-02-19T06:02:21.685Z,21.17
2018-02-19T06:04:49.182Z,20.77
2018-02-19T06:07:16.676Z,20.80
2018-02-19T06:09:44.174Z,20.77
2018-02-19T06:12:11.652Z,20.37
2018-02-19T06:14:39.143Z,20.80
2018-02-19T06:17:06.621Z,21.00
2018-02-19T06:19:34.122Z,20.57
2018-02-19T06:22:01.599Z,21.13
2018-02-19T06:24:29.092Z,20.60
2018-02-19T06:26:56.572Z,20.93
2018-02-19T06:29:24.662Z,19.50
2018-02-19T06:31:52.143Z,19.83
2018-02-19T06:34:19.652Z,20.53
2018-02-19T06:36:47.112Z,20.83
2018-02-19T06:39:14.608Z,20.90
2018-02-19T06:41:42.092Z,21.13
2018-02-19T06:44:10.363Z,21.50
2018-02-19T06:46:38.775Z,23.03
2018-02-19T06:49:06.239Z,22.90
2018-02-19T06:51:33.736Z,22.47
2018-02-19T06:54:01.215Z,23.07
2018-02-19T06:56:28.709Z,23.30
2018-02-19T06:58:56.200Z,22.33
2018-02-19T07:01:23.703Z,22.80
2018-02-19T07:03:51.180Z,22.77
2018-02-19T07:06:18.755Z,23.87
2018-02-19T07:08:46.217Z,22.73
2018-02-19T07:11:13.711Z,23.07
2018-02-19T07:13:41.188Z,24.17
2018-02-19T07:16:08.680Z,24.37
2018-02-19T07:18:36.146Z,24.67
2018-02-19T07:21:03.676Z,23.80
2018-02-19T07:23:31.395Z,23.63
2018-02-19T07:25:58.900Z,23.07
2018-02-19T07:28:26.371Z,24.57
2018-02-19T07:30:53.852Z,24.40
2018-02-19T07:33:21.331Z,24.30
2018-02-19T07:35:48.832Z,25.23
2018-02-19T07:38:16.303Z,24.70
2018-02-19T07:40:43.812Z,25.60
2018-02-19T07:43:11.284Z,24.80
2018-02-19T07:45:38.771Z,24.57
2018-02-19T07:48:07.172Z,26.80
2018-02-19T07:50:34.693Z,24.37
2018-02-19T07:53:12.100Z,24.87
2018-02-19T07:55:39.600Z,25.03
2018-02-19T07:58:07.079Z,23.80
2018-02-19T08:00:34.567Z,24.50
2018-02-19T08:03:02.027Z,25.03
2018-02-19T08:05:30.353Z,25.03
2018-02-19T08:07:57.824Z,23.93
2018-02-19T08:10:25.307Z,24.97
2018-02-19T08:12:52.776Z,25.17
2018-02-19T08:15:20.268Z,25.83
2018-02-19T08:17:47.744Z,25.00
2018-02-19T08:20:15.239Z,24.80
2018-02-19T08:22:42.720Z,23.83
2018-02-19T08:25:10.179Z,22.03
2018-02-19T08:27:37.668Z,22.83
2018-02-19T08:30:05.151Z,23.93
2018-02-19T08:32:32.651Z,23.40
2018-02-19T08:35:00.148Z,22.87
2018-02-19T08:37:27.647Z,22.60
2018-02-19T08:40:01.076Z,22.80
2018-02-19T08:42:28.567Z,23.03
2018-02-19T08:44:56.036Z,22.83
2018-02-19T08:47:23.519Z,22.13
2018-02-19T08:49:51.009Z,23.33
2018-02-19T08:52:18.497Z,23.43
2018-02-19T08:54:46.057Z,23.13
2018-02-19T08:57:13.599Z,23.43
2018-02-19T08:59:41.099Z,22.30
2018-02-19T09:02:08.581Z,22.67
2018-02-19T09:04:36.047Z,22.73
2018-02-19T09:07:03.531Z,21.27
2018-02-19T09:09:30.998Z,22.90
2018-02-19T09:11:58.479Z,21.70
2018-02-19T09:14:25.955Z,21.87
2018-02-19T09:16:54.167Z,21.93
2018-02-19T09:19:21.631Z,21.20
2018-02-19T09:21:49.119Z,22.23
2018-02-19T09:24:17.515Z,23.47
2018-02-19T09:26:45.004Z,22.47
2018-02-19T09:29:12.483Z,23.10
2018-02-19T09:31:39.973Z,22.73
2018-02-19T09:34:07.469Z,22.97
2018-02-19T09:36:34.961Z,21.73
2018-02-19T09:39:02.423Z,22.30
2018-02-19T09:41:29.918Z,22.20
2018-02-19T09:43:57.387Z,22.37
2018-02-19T09:46:24.879Z,21.97
2018-02-19T09:48:52.354Z,21.70
2018-02-19T09:51:19.815Z,22.20
2018-02-19T09:53:47.294Z,21.17
2018-02-19T09:56:14.778Z,21.40
2018-02-19T09:58:42.258Z,21.07
2018-02-19T10:01:09.723Z,22.13
2018-02-19T10:03:37.207Z,22.13
2018-02-19T10:06:04.682Z,20.70
2018-02-19T10:08:32.203Z,21.37
2018-02-19T10:10:59.673Z,21.30
2018-02-19T10:13:27.162Z,20.90
2018-02-19T10:15:54.656Z,22.00
2018-02-19T10:18:22.143Z,21.30
2018-02-19T10:20:49.611Z,21.73
2018-02-19T10:23:17.103Z,21.77
2018-02-19T10:25:44.569Z,20.90
2018-02-19T10:28:13.559Z,20.53
2018-02-19T10:30:43.008Z,20.50
2018-02-19T10:33:16.599Z,20.17
2018-02-19T10:35:44.068Z,21.00
2018-02-19T10:38:11.558Z,21.37
2018-02-19T10:40:39.032Z,20.33
2018-02-19T10:43:06.524Z,20.53
2018-02-19T10:45:33.993Z,20.47
2018-02-19T10:48:01.475Z,21.53
2018-02-19T10:50:28.949Z,19.77
2018-02-19T10:52:56.443Z,21.70
2018-02-19T10:55:23.922Z,20.00
2018-02-19T10:57:51.402Z,19.17
2018-02-19T11:00:24.548Z,20.03
2018-02-19T11:02:52.069Z,19.10
2018-02-19T11:05:19.557Z,18.77
2018-02-19T11:07:57.032Z,19.57
2018-02-19T11:10:24.503Z,19.53
2018-02-19T11:12:51.983Z,18.73
2018-02-19T11:15:19.459Z,18.70
2018-02-19T11:17:46.960Z,17.57
2018-02-19T11:20:14.479Z,18.43
2018-02-19T11:22:41.967Z,18.67
2018-02-19T11:25:09.430Z,18.03
2018-02-19T11:27:36.928Z,17.00
2018-02-19T11:30:04.392Z,18.60
2018-02-19T11:32:31.885Z,18.20
2018-02-19T11:34:59.377Z,18.00
2018-02-19T11:37:26.851Z,18.30
2018-02-19T11:39:54.331Z,17.80
2018-02-19T11:42:21.801Z,18.13
2018-02-19T11:44:49.304Z,18.27
2018-02-19T11:47:16.772Z,18.20
2018-02-19T11:49:44.264Z,18.20
2018-02-19T11:52:11.731Z,18.87
2018-02-19T11:54:42.339Z,18.00
2018-02-19T11:57:09.812Z,19.20
2018-02-19T11:59:37.963Z,19.30
2018-02-19T12:02:05.431Z,19.20
2018-02-19T12:04:32.922Z,20.23
2018-02-19T12:07:00.400Z,19.53
2018-02-19T12:09:27.876Z,18.27
2018-02-19T12:11:55.464Z,19.00
2018-02-19T12:14:23.815Z,18.53
2018-02-19T12:16:51.280Z,17.10
2018-02-19T12:19:18.763Z,16.90
2018-02-19T12:21:46.239Z,18.03
2018-02-19T12:24:16.760Z,18.50
2018-02-19T12:26:44.230Z,18.00
2018-02-19T12:29:11.733Z,17.53
2018-02-19T12:31:39.207Z,18.23
2018-02-19T12:34:06.701Z,18.67
2018-02-19T12:36:34.175Z,19.27
2018-02-19T12:39:01.655Z,17.50
2018-02-19T12:41:29.127Z,18.03
2018-02-19T12:43:56.618Z,18.70
2018-02-19T12:46:24.083Z,17.20
2018-02-19T12:48:51.579Z,17.70
2018-02-19T12:51:19.055Z,19.13
2018-02-19T12:53:46.554Z,20.47
2018-02-19T12:56:14.023Z,19.20
2018-02-19T12:58:41.516Z,18.00
2018-02-19T13:01:08.984Z,17.37
2018-02-19T13:03:36.461Z,17.83
2018-02-19T13:06:03.947Z,17.03
2018-02-19T13:08:31.403Z,16.33
2018-02-19T13:10:58.883Z,17.60
2018-02-19T13:13:26.347Z,17.43
2018-02-19T13:15:53.831Z,17.07
2018-02-19T13:18:21.356Z,17.33
2018-02-19T13:20:48.847Z,16.43
2018-02-19T13:23:16.314Z,16.50
2018-02-19T13:25:43.804Z,17.37
2018-02-19T13:28:11.263Z,16.30
2018-02-19T13:30:38.752Z,16.47
2018-02-19T13:33:06.224Z,17.07
2018-02-19T13:35:33.716Z,17.57
2018-02-19T13:38:01.179Z,16.87
2018-02-19T13:40:28.664Z,17.63
2018-02-19T13:42:56.131Z,16.43
2018-02-19T13:45:23.623Z,16.97
2018-02-19T13:47:51.087Z,15.63
2018-02-19T13:50:18.576Z,17.67
2018-02-19T13:52:46.867Z,17.63
2018-02-19T13:55:14.354Z,17.03
2018-02-19T13:57:41.831Z,17.03
2018-02-19T14:00:10.036Z,18.10
2018-02-19T14:02:37.503Z,17.67
2018-02-19T14:05:04.991Z,17.97
2018-02-19T14:07:32.465Z,16.80
2018-02-19T14:09:59.959Z,16.63
2018-02-19T14:12:28.368Z,16.80
2018-02-19T14:14:55.850Z,17.43
2018-02-19T14:17:23.319Z,17.73
2018-02-19T14:19:50.811Z,17.23
2018-02-19T14:22:19.273Z,17.17
2018-02-19T14:24:46.746Z,17.60
2018-02-19T14:27:14.234Z,17.50
2018-02-19T14:29:41.703Z,17.83
2018-02-19T14:32:09.211Z,18.13
2018-02-19T14:34:36.673Z,18.60
2018-02-19T14:37:04.159Z,16.60
2018-02-19T14:39:31.635Z,18.10
2018-02-19T14:42:13.443Z,17.33
2018-02-19T14:44:40.916Z,17.43
2018-02-19T14:47:08.415Z,16.73
2018-02-19T14:49:36.736Z,18.50
2018-02-19T14:52:04.236Z,17.67
2018-02-19T14:54:31.703Z,18.10
2018-02-19T14:56:59.184Z,17.90
2018-02-19T14:59:26.664Z,18.30
2018-02-19T15:01:54.156Z,16.90
2018-02-19T15:04:21.636Z,17.90
2018-02-19T15:06:49.123Z,17.80
2018-02-19T15:09:16.599Z,17.40
2018-02-19T15:11:44.080Z,17.83
2018-02-19T15:14:12.465Z,17.63
2018-02-19T15:16:39.951Z,17.87
2018-02-19T15:19:07.411Z,17.40
2018-02-19T15:21:34.895Z,18.20
2018-02-19T15:24:02.360Z,16.93
2018-02-19T15:26:29.847Z,17.30
2018-02-19T15:28:57.323Z,17.60
2018-02-19T15:31:24.799Z,18.13
2018-02-19T15:33:52.284Z,17.87
2018-02-19T15:36:19.774Z,17.57
2018-02-19T15:38:47.252Z,17.97
2018-02-19T15:41:14.743Z,17.77
2018-02-19T15:43:42.214Z,17.47
2018-02-19T15:46:09.695Z,16.97
2018-02-19T15:48:37.171Z,17.30
2018-02-19T15:51:04.662Z,17.70
2018-02-19T15:53:32.128Z,17.03
2018-02-19T15:55:59.620Z,17.60
2018-02-19T15:58:27.099Z,17.33
2018-02-19T16:00:54.564Z,17.53
2018-02-19T16:03:22.051Z,15.93
2018-02-19T16:05:49.510Z,17.53
2018-02-19T16:08:18.022Z,16.80
2018-02-19T16:10:45.536Z,16.57
2018-02-19T16:13:13.052Z,15.83
2018-02-19T16:15:40.793Z,16.50
2018-02-19T16:18:08.318Z,17.20
2018-02-19T16:20:35.837Z,16.63
2018-02-19T16:23:03.418Z,17.30
2018-02-19T16:25:36.512Z,16.43
2018-02-19T16:28:04.139Z,17.87
2018-02-19T16:30:31.725Z,16.60
2018-02-19T16:32:59.287Z,15.90
2018-02-19T16:35:26.829Z,17.33
2018-02-19T16:37:54.393Z,17.10
2018-02-19T16:40:22.022Z,16.97
2018-02-19T16:42:49.592Z,16.60
2018-02-19T16:45:18.235Z,16.47
2018-02-19T16:50:17.836Z,16.23
2018-02-19T16:55:17.696Z,16.43
2018-02-19T16:57:45.241Z,16.43
2018-02-19T17:00:12.765Z,15.63
2018-02-19T17:05:21.544Z,17.07
2018-02-19T17:07:49.462Z,16.27
2018-02-19T17:10:17.477Z,17.17
2018-02-19T17:12:46.269Z,16.90
2018-02-19T17:15:13.877Z,16.77
2018-02-19T17:17:41.397Z,17.17
2018-02-19T17:20:08.972Z,16.60
2018-02-19T17:22:36.481Z,16.40
2018-02-19T17:25:04.104Z,17.17
2018-02-19T17:27:32.680Z,16.30
2018-02-19T17:30:00.281Z,17.53
2018-02-19T17:32:27.872Z,16.33
2018-02-19T17:34:55.492Z,17.43
2018-02-19T17:37:23.062Z,16.00
2018-02-19T17:39:50.632Z,17.07
2018-02-19T17:42:18.189Z,16.67
2018-02-19T17:44:45.733Z,16.77
2018-02-19T17:47:13.339Z,16.50
2018-02-19T17:49:40.883Z,16.70
2018-02-19T17:52:09.549Z,17.73
2018-02-19T17:54:37.107Z,17.63
2018-02-19T17:57:04.851Z,16.73
2018-02-19T17:59:32.736Z,17.80
2018-02-19T18:02:00.277Z,17.47
2018-02-19T18:04:27.920Z,16.97
2018-02-19T18:06:55.420Z,16.70
2018-02-19T18:09:23.058Z,18.10
2018-02-19T18:11:50.640Z,17.83
2018-02-19T18:14:18.211Z,18.33
2018-02-19T18:16:45.996Z,17.67
2018-02-19T18:19:13.601Z,18.77
2018-02-19T18:24:14.347Z,17.77
2018-02-19T18:26:41.899Z,17.67
2018-02-19T18:29:09.468Z,18.60
2018-02-19T18:31:37.012Z,19.37
2018-02-19T18:34:04.563Z,18.23
2018-02-19T18:36:32.128Z,18.47
2018-02-19T18:41:31.561Z,18.53
2018-02-19T18:43:59.980Z,17.57
2018-02-19T18:46:27.652Z,18.77
2018-02-19T18:48:55.273Z,18.30
2018-02-19T18:51:23.276Z,19.67
2018-02-19T18:53:50.849Z,20.50
2018-02-19T18:56:18.377Z,19.00
2018-02-19T18:58:46.001Z,19.70
2018-02-19T19:01:13.550Z,18.73
2018-02-19T19:03:42.047Z,19.30
2018-02-19T19:06:09.551Z,18.50
2018-02-19T19:08:49.251Z,18.10
2018-02-19T19:11:16.719Z,17.33
2018-02-19T19:13:44.219Z,19.20
2018-02-19T19:16:11.700Z,17.80
2018-02-19T19:18:39.188Z,18.17
2018-02-19T19:21:06.676Z,19.23
2018-02-19T19:23:34.185Z,18.13
2018-02-19T19:26:01.679Z,18.20
2018-02-19T19:28:29.166Z,18.90
2018-02-19T19:30:56.683Z,17.60
2018-02-19T19:33:24.200Z,17.77
2018-02-19T19:35:51.702Z,17.53
2018-02-19T19:38:19.176Z,17.80
2018-02-19T19:40:46.827Z,18.03
2018-02-19T19:43:14.312Z,17.63
2018-02-19T19:45:41.827Z,17.07
2018-02-19T19:48:09.312Z,16.47
2018-02-19T19:50:36.804Z,17.77
2018-02-19T19:53:04.294Z,16.37
2018-02-19T19:55:31.835Z,16.97
2018-02-19T19:57:59.329Z,17.73
2018-02-19T20:00:27.113Z,17.57
2018-02-19T20:02:55.054Z,17.27
2018-02-19T20:05:22.578Z,17.37
2018-02-19T20:07:50.047Z,16.43
2018-02-19T20:10:17.591Z,16.63
2018-02-19T20:12:45.076Z,15.97
2018-02-19T20:15:12.596Z,16.03
2018-02-19T20:17:40.072Z,16.50
2018-02-19T20:20:07.573Z,16.00
2018-02-19T20:22:35.043Z,17.57
2018-02-19T20:25:02.545Z,17.13
2018-02-19T20:27:30.147Z,15.83
2018-02-19T20:29:57.729Z,16.40
2018-02-19T20:32:25.264Z,15.50
2018-02-19T20:34:52.844Z,16.23
2018-02-19T20:37:20.507Z,14.37
2018-02-19T20:39:48.020Z,16.30
2018-02-19T20:42:15.514Z,16.53
2018-02-19T20:44:43.100Z,17.77
2018-02-19T20:47:10.720Z,16.30
2018-02-19T20:49:38.386Z,16.23
2018-02-19T20:52:05.922Z,15.77
2018-02-19T20:54:33.627Z,15.50
2018-02-19T20:57:01.129Z,16.33
2018-02-19T20:59:28.667Z,16.97
2018-02-19T21:01:56.165Z,16.17
2018-02-19T21:04:23.672Z,17.17
2018-02-19T21:06:51.289Z,16.97
2018-02-19T21:09:18.927Z,17.37
2018-02-19T21:11:46.468Z,16.37
2018-02-19T21:14:13.958Z,16.77
2018-02-19T21:16:41.642Z,16.43
2018-02-19T21:19:09.273Z,17.53
2018-02-19T21:21:36.819Z,16.33
2018-02-19T21:24:04.479Z,16.80
2018-02-19T21:26:31.989Z,16.63
2018-02-19T21:28:59.489Z,18.43
2018-02-19T21:31:26.987Z,17.83
2018-02-19T21:33:54.709Z,17.37
2018-02-19T21:36:22.214Z,18.27
2018-02-19T21:38:49.707Z,17.90
2018-02-19T21:41:17.265Z,18.93
2018-02-19T21:43:44.870Z,19.50
2018-02-19T21:46:12.405Z,18.23
2018-02-19T21:48:40.073Z,19.57
2018-02-19T21:51:07.545Z,19.70
2018-02-19T21:53:35.044Z,20.87
2018-02-19T21:56:02.601Z,22.67
2018-02-19T21:58:30.103Z,22.07
2018-02-19T22:00:57.763Z,23.23
2018-02-19T22:03:25.274Z,22.63
2018-02-19T22:05:52.744Z,22.17
2018-02-19T22:08:20.249Z,22.50
2018-02-19T22:10:47.720Z,22.17
2018-02-19T22:13:15.211Z,20.70
2018-02-19T22:15:42.680Z,21.80
2018-02-19T22:18:10.172Z,22.90
2018-02-19T22:20:37.658Z,21.17
2018-02-19T22:23:05.203Z,21.27
2018-02-19T22:25:32.668Z,20.43
2018-02-19T22:28:00.645Z,20.00
2018-02-19T22:30:28.527Z,21.17
2018-02-19T22:32:56.049Z,20.57
2018-02-19T22:35:23.561Z,21.23
2018-02-19T22:37:51.016Z,20.80
2018-02-19T22:40:18.515Z,20.30
2018-02-19T22:42:46.013Z,21.40
2018-02-19T22:45:13.488Z,20.73
2018-02-19T22:47:40.975Z,21.77
2018-02-19T22:50:08.456Z,20.30
2018-02-19T22:52:35.969Z,21.17
2018-02-19T22:55:03.443Z,21.37
2018-02-19T22:57:30.931Z,22.23
2018-02-19T22:59:58.395Z,22.27
2018-02-19T23:02:25.880Z,24.77
2018-02-19T23:04:53.343Z,24.70
2018-02-19T23:07:20.824Z,25.97
2018-02-19T23:09:48.304Z,23.13
2018-02-19T23:12:15.792Z,23.10
2018-02-19T23:14:43.249Z,23.63
2018-02-19T23:17:10.752Z,22.97
2018-02-19T23:19:38.211Z,22.10
2018-02-19T23:22:05.704Z,21.30
2018-02-19T23:24:33.178Z,22.53
2018-02-19T23:27:00.686Z,23.17
2018-02-19T23:29:28.176Z,22.87
2018-02-19T23:31:55.648Z,23.37
2018-02-19T23:34:23.155Z,23.30
2018-02-19T23:36:50.636Z,24.80
2018-02-19T23:39:18.135Z,23.67
2018-02-19T23:41:45.608Z,26.47
2018-02-19T23:44:13.116Z,24.97
2018-02-19T23:46:40.590Z,24.67
2018-02-19T23:49:08.092Z,25.63
2018-02-19T23:51:35.564Z,25.10
2018-02-19T23:54:03.062Z,25.67
2018-02-19T23:56:30.541Z,25.63
2018-02-19T23:58:58.037Z,24.93
